createdAt,value
2018-05-25T00:01:14.096Z,93.30
2018-05-25T00:03:42.337Z,93.40
2018-05-25T00:06:11.446Z,93.50
2018-05-25T00:08:39.643Z,93.50
2018-05-25T00:11:07.896Z,93.80
2018-05-25T00:13:36.908Z,93.70
2018-05-25T00:16:05.085Z,93.70
2018-05-25T00:18:33.286Z,94.00
2018-05-25T00:21:01.507Z,94.00
2018-05-25T00:23:29.732Z,94.20
2018-05-25T00:25:57.925Z,94.10
2018-05-25T00:28:26.149Z,94.10
2018-05-25T00:30:54.376Z,94.30
2018-05-25T00:33:22.609Z,94.00
2018-05-25T00:35:50.825Z,94.00
2018-05-25T00:38:19.049Z,93.90
2018-05-25T00:40:47.273Z,93.70
2018-05-25T00:43:15.501Z,93.90
2018-05-25T00:45:45.167Z,93.80
2018-05-25T00:48:13.387Z,93.80
2018-05-25T00:50:41.604Z,93.90
2018-05-25T00:53:09.829Z,94.10
2018-05-25T00:55:40.878Z,94.20
2018-05-25T00:58:09.138Z,94.60
2018-05-25T01:00:37.364Z,94.30
2018-05-25T01:03:05.576Z,94.90
2018-05-25T01:05:33.810Z,95.50
2018-05-25T01:08:02.038Z,95.70
2018-05-25T01:10:30.273Z,95.50
2018-05-25T01:12:58.495Z,95.40
2018-05-25T01:15:26.717Z,95.20
2018-05-25T01:17:54.993Z,95.20
2018-05-25T01:20:23.216Z,94.70
2018-05-25T01:22:51.451Z,94.60
2018-05-25T01:25:19.683Z,94.50
2018-05-25T01:27:47.926Z,94.70
2018-05-25T01:30:16.918Z,95.00
2018-05-25T01:32:45.922Z,94.90
2018-05-25T01:35:14.156Z,94.90
2018-05-25T01:37:42.368Z,95.10
2018-05-25T01:40:11.366Z,94.90
2018-05-25T01:42:39.582Z,94.90
2018-05-25T01:45:07.822Z,94.60
2018-05-25T01:47:36.027Z,94.70
2018-05-25T01:50:04.268Z,94.50
2018-05-25T01:52:32.532Z,94.30
2018-05-25T01:55:00.766Z,94.50
2018-05-25T01:57:28.966Z,94.80
2018-05-25T01:59:57.214Z,94.60
2018-05-25T02:02:25.420Z,94.90
2018-05-25T02:04:53.632Z,94.80
2018-05-25T02:07:21.903Z,94.70
2018-05-25T02:09:50.122Z,94.50
2018-05-25T02:12:18.417Z,94.40
2018-05-25T02:14:47.428Z,94.10
2018-05-25T02:17:16.422Z,94.00
2018-05-25T02:19:45.423Z,94.00
2018-05-25T02:22:13.663Z,94.00
2018-05-25T02:24:41.907Z,94.40
2018-05-25T02:27:10.133Z,94.40
2018-05-25T02:29:39.146Z,94.20
2018-05-25T02:32:07.381Z,94.20
2018-05-25T02:34:35.623Z,94.30
2018-05-25T02:37:03.852Z,94.60
2018-05-25T02:39:32.091Z,94.70
2018-05-25T02:42:00.310Z,94.50
2018-05-25T02:44:29.309Z,94.40
2018-05-25T02:46:58.320Z,94.30
2018-05-25T02:49:26.543Z,94.30
2018-05-25T02:51:54.760Z,94.20
2018-05-25T02:54:22.982Z,94.30
2018-05-25T02:56:51.229Z,94.30
2018-05-25T02:59:19.483Z,94.10
2018-05-25T03:01:47.716Z,94.10
2018-05-25T03:04:15.934Z,94.10
2018-05-25T03:06:44.146Z,94.00
2018-05-25T03:09:12.356Z,94.00
2018-05-25T03:11:40.602Z,94.20
2018-05-25T03:14:08.834Z,93.90
2018-05-25T03:16:37.038Z,93.90
2018-05-25T03:19:05.261Z,93.90
2018-05-25T03:21:33.478Z,94.00
2018-05-25T03:24:01.718Z,94.10
2018-05-25T03:26:30.698Z,94.10
2018-05-25T03:28:58.933Z,94.00
2018-05-25T03:31:27.162Z,94.10
2018-05-25T03:33:56.163Z,93.80
2018-05-25T03:36:25.140Z,93.80
2018-05-25T03:38:54.129Z,93.70
2018-05-25T03:41:22.352Z,93.70
2018-05-25T03:43:50.578Z,93.70
2018-05-25T03:46:18.806Z,93.60
2018-05-25T03:48:47.045Z,93.70
2018-05-25T03:51:16.006Z,93.70
2018-05-25T03:53:44.250Z,93.60
2018-05-25T03:56:12.455Z,93.60
2018-05-25T03:58:52.420Z,93.70
2018-05-25T04:01:32.333Z,93.70
2018-05-25T04:04:00.543Z,93.60
2018-05-25T04:06:28.739Z,93.70
2018-05-25T04:08:57.731Z,93.70
2018-05-25T04:11:26.712Z,93.70
2018-05-25T04:13:55.696Z,93.80
2018-05-25T04:16:24.083Z,93.80
2018-05-25T04:18:52.300Z,93.80
2018-05-25T04:21:20.545Z,93.80
2018-05-25T04:23:49.520Z,93.60
2018-05-25T04:26:17.886Z,93.60
2018-05-25T04:28:46.115Z,93.50
2018-05-25T04:31:14.310Z,93.50
2018-05-25T04:33:42.536Z,93.60
2018-05-25T04:36:11.551Z,93.60
2018-05-25T04:38:39.775Z,93.60
2018-05-25T04:41:07.996Z,93.70
2018-05-25T04:43:36.973Z,93.60
2018-05-25T04:46:05.951Z,93.60
2018-05-25T04:48:34.179Z,93.60
2018-05-25T04:51:02.413Z,93.50
2018-05-25T04:53:31.390Z,93.60
2018-05-25T04:55:59.637Z,93.60
2018-05-25T04:58:27.847Z,93.70
2018-05-25T05:00:56.855Z,93.50
2018-05-25T05:03:25.950Z,93.50
2018-05-25T05:05:54.665Z,93.50
2018-05-25T05:08:22.886Z,93.60
2018-05-25T05:10:51.142Z,93.60
2018-05-25T05:13:19.359Z,93.40
2018-05-25T05:15:48.355Z,93.30
2018-05-25T05:18:17.335Z,93.50
2018-05-25T05:20:46.314Z,93.30
2018-05-25T05:23:14.565Z,93.30
2018-05-25T05:25:42.783Z,93.60
2018-05-25T05:28:11.806Z,93.60
2018-05-25T05:30:40.042Z,93.60
2018-05-25T05:33:08.243Z,93.70
2018-05-25T05:35:37.149Z,93.80
2018-05-25T05:38:05.409Z,93.70
2018-05-25T05:40:34.389Z,93.60
2018-05-25T05:43:03.377Z,93.70
2018-05-25T05:45:31.599Z,93.70
2018-05-25T05:47:59.824Z,93.10
2018-05-25T05:50:30.170Z,93.80
2018-05-25T05:52:58.427Z,93.40
2018-05-25T05:55:26.645Z,93.60
2018-05-25T05:57:54.876Z,93.40
2018-05-25T06:00:23.855Z,93.20
2018-05-25T06:02:52.090Z,93.00
2018-05-25T06:05:20.319Z,92.70
2018-05-25T06:07:49.299Z,92.70
2018-05-25T06:10:17.518Z,92.50
2018-05-25T06:12:45.739Z,92.30
2018-05-25T06:15:13.979Z,92.30
2018-05-25T06:17:42.199Z,91.00
2018-05-25T06:20:10.429Z,87.10
2018-05-25T06:22:38.643Z,85.50
2018-05-25T06:25:06.878Z,86.50
2018-05-25T06:27:35.090Z,88.70
2018-05-25T06:30:03.332Z,88.60
2018-05-25T06:32:31.545Z,89.00
2018-05-25T06:34:59.773Z,87.40
2018-05-25T06:37:27.995Z,87.00
2018-05-25T06:39:56.209Z,85.40
2018-05-25T06:42:24.431Z,82.20
2018-05-25T06:44:52.671Z,76.10
2018-05-25T06:47:20.940Z,70.50
2018-05-25T06:49:49.165Z,69.60
2018-05-25T06:52:17.377Z,64.70
2018-05-25T06:54:45.730Z,59.20
2018-05-25T06:57:13.902Z,53.20
2018-05-25T06:59:42.120Z,48.60
2018-05-25T07:02:10.374Z,47.90
2018-05-25T07:04:39.409Z,43.90
2018-05-25T07:07:07.636Z,43.80
2018-05-25T07:09:35.858Z,40.70
2018-05-25T07:12:04.086Z,41.30
2018-05-25T07:14:32.293Z,39.20
2018-05-25T07:17:00.578Z,37.30
2018-05-25T07:19:29.533Z,38.00
2018-05-25T07:21:58.536Z,36.90
2018-05-25T07:24:27.552Z,35.70
2018-05-25T07:26:55.919Z,35.60
2018-05-25T07:29:24.034Z,34.60
2018-05-25T07:31:52.307Z,34.60
2018-05-25T07:34:20.555Z,34.40
2018-05-25T07:36:48.858Z,35.40
2018-05-25T07:39:17.100Z,36.30
2018-05-25T07:41:45.316Z,34.80
2018-05-25T07:44:13.536Z,33.50
2018-05-25T07:46:42.529Z,35.00
2018-05-25T07:49:11.547Z,33.30
2018-05-25T07:51:39.812Z,33.20
2018-05-25T07:54:08.022Z,32.80
2018-05-25T07:56:36.290Z,32.10
2018-05-25T07:59:04.477Z,30.70
2018-05-25T08:01:32.761Z,30.00
2018-05-25T08:04:00.994Z,29.70
2018-05-25T08:06:29.328Z,29.60
2018-05-25T08:08:57.525Z,29.20
2018-05-25T08:11:26.519Z,31.00
2018-05-25T08:13:56.411Z,31.60
2018-05-25T08:16:25.423Z,30.90
2018-05-25T08:18:54.419Z,29.40
2018-05-25T08:21:23.399Z,28.50
2018-05-25T08:23:51.630Z,28.50
2018-05-25T08:26:19.827Z,29.20
2018-05-25T08:28:48.406Z,28.60
2018-05-25T08:31:16.621Z,28.90
2018-05-25T08:33:45.653Z,28.50
2018-05-25T08:36:13.887Z,28.50
2018-05-25T08:38:42.278Z,29.60
2018-05-25T08:41:10.553Z,29.40
2018-05-25T08:43:39.548Z,30.60
2018-05-25T08:46:07.766Z,30.60
2018-05-25T08:48:35.998Z,33.10
2018-05-25T08:51:04.221Z,34.90
2018-05-25T08:53:32.463Z,36.70
2018-05-25T08:56:00.669Z,36.60
2018-05-25T08:58:28.979Z,35.60
2018-05-25T09:00:57.257Z,36.50
2018-05-25T09:03:26.265Z,45.30
2018-05-25T09:05:55.261Z,49.30
2018-05-25T09:08:23.486Z,49.30
2018-05-25T09:10:51.700Z,53.90
2018-05-25T09:13:20.710Z,60.10
2018-05-25T09:15:48.956Z,60.00
2018-05-25T09:18:17.178Z,60.30
2018-05-25T09:20:45.423Z,60.50
2018-05-25T09:23:13.710Z,61.20
2018-05-25T09:25:41.916Z,62.80
2018-05-25T09:28:10.165Z,63.80
2018-05-25T09:30:39.157Z,64.10
2018-05-25T09:33:07.400Z,64.00
2018-05-25T09:35:35.618Z,65.00
2018-05-25T09:38:03.849Z,65.60
2018-05-25T09:40:32.107Z,64.90
2018-05-25T09:43:00.310Z,65.10
2018-05-25T09:45:29.290Z,64.50
2018-05-25T09:47:57.514Z,64.50
2018-05-25T09:50:25.736Z,65.80
2018-05-25T09:52:53.967Z,66.70
2018-05-25T09:55:22.195Z,65.20
2018-05-25T09:57:58.008Z,64.40
2018-05-25T10:00:26.230Z,64.40
2018-05-25T10:02:54.452Z,63.50
2018-05-25T10:05:22.669Z,63.90
2018-05-25T10:07:50.893Z,64.90
2018-05-25T10:10:19.124Z,65.90
2018-05-25T10:12:47.399Z,66.00
2018-05-25T10:15:15.811Z,65.30
2018-05-25T10:17:44.675Z,64.80
2018-05-25T10:20:13.730Z,64.30
2018-05-25T10:22:41.937Z,64.20
2018-05-25T10:25:10.147Z,62.80
2018-05-25T10:27:38.395Z,62.30
2018-05-25T10:30:06.593Z,62.20
2018-05-25T10:32:34.836Z,61.50
2018-05-25T10:35:03.626Z,61.90
2018-05-25T10:37:31.814Z,61.80
2018-05-25T10:40:00.803Z,61.30
2018-05-25T10:42:29.801Z,61.30
2018-05-25T10:44:58.798Z,61.20
2018-05-25T10:47:27.776Z,60.20
2018-05-25T10:49:55.994Z,60.10
2018-05-25T10:52:24.218Z,60.10
2018-05-25T10:54:52.418Z,60.00
2018-05-25T10:57:20.648Z,60.40
2018-05-25T10:59:49.710Z,62.90
2018-05-25T11:02:17.917Z,62.90
2018-05-25T11:04:46.134Z,63.10
2018-05-25T11:07:15.129Z,64.10
2018-05-25T11:09:44.109Z,64.10
2018-05-25T11:12:12.314Z,64.10
2018-05-25T11:14:40.547Z,63.20
2018-05-25T11:17:08.778Z,63.60
2018-05-25T11:19:37.007Z,64.40
2018-05-25T11:22:05.259Z,63.80
2018-05-25T11:24:33.478Z,62.90
2018-05-25T11:27:01.735Z,62.40
2018-05-25T11:29:29.958Z,61.70
2018-05-25T11:31:58.196Z,60.30
2018-05-25T11:34:27.225Z,59.70
2018-05-25T11:36:55.494Z,59.70
2018-05-25T11:39:23.706Z,59.40
2018-05-25T11:41:51.920Z,58.00
2018-05-25T11:44:20.901Z,56.60
2018-05-25T11:46:49.899Z,55.90
2018-05-25T11:49:18.125Z,55.90
2018-05-25T11:51:46.352Z,55.50
2018-05-25T11:54:15.336Z,55.80
2018-05-25T11:56:43.569Z,55.80
2018-05-25T11:59:11.800Z,55.90
2018-05-25T12:01:40.089Z,55.60
2018-05-25T12:04:08.421Z,52.90
2018-05-25T12:06:36.643Z,53.60
2018-05-25T12:09:06.607Z,55.40
2018-05-25T12:11:34.881Z,55.40
2018-05-25T12:14:03.065Z,56.00
2018-05-25T12:16:31.312Z,56.00
2018-05-25T12:19:00.251Z,55.40
2018-05-25T12:21:28.506Z,55.30
2018-05-25T12:23:56.730Z,55.50
2018-05-25T12:26:24.953Z,55.90
2018-05-25T12:28:53.196Z,55.00
2018-05-25T12:31:21.405Z,55.30
2018-05-25T12:33:49.608Z,54.50
2018-05-25T12:36:18.597Z,53.50
2018-05-25T12:38:46.852Z,53.50
2018-05-25T12:41:15.078Z,53.70
2018-05-25T12:43:43.407Z,54.50
2018-05-25T12:46:11.765Z,53.40
2018-05-25T12:48:39.996Z,53.60
2018-05-25T12:51:08.989Z,52.20
2018-05-25T12:53:37.214Z,52.10
2018-05-25T12:56:05.450Z,50.40
2018-05-25T12:58:33.675Z,50.30
2018-05-25T13:01:01.948Z,50.30
2018-05-25T13:03:30.854Z,50.00
2018-05-25T13:05:59.327Z,49.90
2018-05-25T13:08:27.640Z,49.70
2018-05-25T13:10:55.873Z,49.00
2018-05-25T13:13:24.139Z,49.00
2018-05-25T13:15:52.423Z,48.70
2018-05-25T13:18:20.727Z,49.40
2018-05-25T13:20:48.934Z,49.00
2018-05-25T13:23:17.137Z,48.30
2018-05-25T13:25:45.380Z,49.40
2018-05-25T13:28:13.610Z,47.90
2018-05-25T13:30:41.846Z,48.20
2018-05-25T13:33:10.062Z,49.10
2018-05-25T13:35:38.319Z,48.70
2018-05-25T13:38:06.619Z,48.70
2018-05-25T13:40:34.807Z,47.30
2018-05-25T13:43:04.111Z,47.50
2018-05-25T13:45:32.588Z,47.70
2018-05-25T13:48:01.608Z,47.90
2018-05-25T13:50:29.814Z,47.90
2018-05-25T13:52:58.205Z,47.30
2018-05-25T13:55:26.415Z,47.70
2018-05-25T13:57:55.391Z,46.60
2018-05-25T14:00:23.643Z,46.60
2018-05-25T14:02:51.893Z,48.70
2018-05-25T14:05:20.222Z,49.90
2018-05-25T14:07:48.499Z,50.10
2018-05-25T14:10:16.829Z,50.80
2018-05-25T14:12:45.108Z,51.40
2018-05-25T14:15:13.451Z,51.60
2018-05-25T14:17:41.745Z,51.60
2018-05-25T14:20:10.509Z,51.30
2018-05-25T14:22:39.618Z,51.60
2018-05-25T14:25:08.719Z,51.70
2018-05-25T14:27:37.112Z,51.70
2018-05-25T14:30:05.472Z,51.20
2018-05-25T14:32:34.440Z,52.60
2018-05-25T14:35:02.824Z,52.60
2018-05-25T14:37:31.119Z,52.80
2018-05-25T14:39:59.779Z,53.10
2018-05-25T14:42:27.997Z,52.40
2018-05-25T14:44:56.249Z,52.20
2018-05-25T14:47:24.732Z,52.60
2018-05-25T14:49:53.034Z,52.50
2018-05-25T14:52:21.327Z,51.90
2018-05-25T14:54:49.614Z,52.00
2018-05-25T14:57:18.181Z,52.00
2018-05-25T14:59:46.563Z,52.00
2018-05-25T15:02:14.967Z,52.20
2018-05-25T15:04:43.287Z,52.20
2018-05-25T15:07:11.626Z,52.10
2018-05-25T15:09:39.947Z,52.10
2018-05-25T15:12:08.145Z,52.60
2018-05-25T15:14:36.378Z,52.60
2018-05-25T15:17:04.598Z,52.40
2018-05-25T15:19:32.886Z,52.20
2018-05-25T15:22:01.085Z,52.20
2018-05-25T15:24:30.095Z,52.30
2018-05-25T15:26:59.852Z,52.00
2018-05-25T15:29:29.009Z,51.30
2018-05-25T15:31:57.209Z,51.50
2018-05-25T15:34:25.478Z,51.50
2018-05-25T15:36:53.735Z,51.40
2018-05-25T15:39:22.711Z,50.30
2018-05-25T15:41:52.111Z,49.90
2018-05-25T15:44:20.352Z,49.80
2018-05-25T15:46:48.600Z,50.10
2018-05-25T15:49:17.597Z,50.40
2018-05-25T15:51:45.827Z,50.30
2018-05-25T15:54:14.050Z,50.10
2018-05-25T15:56:42.237Z,50.40
2018-05-25T15:59:10.464Z,50.50
2018-05-25T16:01:39.447Z,50.50
2018-05-25T16:04:07.663Z,50.50
2018-05-25T16:06:35.890Z,49.80
2018-05-25T16:09:04.187Z,49.70
2018-05-25T16:11:32.366Z,50.30
2018-05-25T16:14:00.596Z,50.50
2018-05-25T16:16:28.822Z,50.60
2018-05-25T16:18:57.047Z,51.30
2018-05-25T16:21:25.266Z,51.60
2018-05-25T16:23:54.263Z,51.80
2018-05-25T16:26:22.535Z,51.80
2018-05-25T16:28:51.547Z,51.40
2018-05-25T16:31:19.754Z,51.30
2018-05-25T16:33:48.118Z,51.30
2018-05-25T16:36:16.322Z,51.70
2018-05-25T16:38:44.547Z,51.60
2018-05-25T16:41:12.775Z,51.40
2018-05-25T16:43:41.013Z,50.60
2018-05-25T16:46:09.276Z,51.20
2018-05-25T16:48:37.581Z,51.30
2018-05-25T16:51:05.859Z,51.80
2018-05-25T16:53:34.114Z,51.90
2018-05-25T16:56:02.394Z,52.40
2018-05-25T16:58:30.595Z,53.10
2018-05-25T17:00:58.828Z,53.50
2018-05-25T17:03:27.038Z,53.40
2018-05-25T17:05:55.270Z,53.80
2018-05-25T17:08:23.595Z,53.70
2018-05-25T17:10:51.859Z,54.70
2018-05-25T17:13:20.093Z,53.80
2018-05-25T17:15:49.126Z,54.00
2018-05-25T17:18:17.331Z,54.00
2018-05-25T17:20:45.577Z,54.00
2018-05-25T17:23:13.798Z,53.90
2018-05-25T17:25:42.814Z,54.30
2018-05-25T17:28:11.034Z,54.20
2018-05-25T17:30:39.282Z,54.50
2018-05-25T17:33:08.257Z,54.70
2018-05-25T17:35:37.227Z,54.40
2018-05-25T17:38:06.264Z,55.30
2018-05-25T17:40:34.458Z,54.80
2018-05-25T17:43:02.692Z,56.10
2018-05-25T17:45:30.944Z,54.90
2018-05-25T17:47:59.160Z,55.20
2018-05-25T17:50:27.414Z,54.90
2018-05-25T17:52:56.376Z,54.80
2018-05-25T17:55:24.618Z,54.80
2018-05-25T17:57:52.830Z,55.20
2018-05-25T18:00:21.101Z,55.60
2018-05-25T18:02:49.325Z,56.20
2018-05-25T18:05:17.761Z,56.00
2018-05-25T18:07:45.948Z,56.40
2018-05-25T18:10:14.181Z,56.80
2018-05-25T18:12:42.434Z,57.20
2018-05-25T18:15:10.667Z,57.70
2018-05-25T18:17:38.891Z,57.90
2018-05-25T18:20:07.116Z,58.10
2018-05-25T18:22:36.204Z,58.10
2018-05-25T18:25:04.445Z,58.20
2018-05-25T18:27:32.672Z,58.10
2018-05-25T18:30:01.694Z,59.00
2018-05-25T18:32:30.019Z,59.60
2018-05-25T18:34:58.964Z,60.50
2018-05-25T18:37:27.192Z,60.50
2018-05-25T18:39:55.439Z,61.20
2018-05-25T18:42:23.676Z,62.00
2018-05-25T18:44:51.889Z,62.80
2018-05-25T18:47:20.163Z,63.70
2018-05-25T18:49:48.381Z,64.50
2018-05-25T18:52:16.612Z,64.90
2018-05-25T18:54:44.866Z,65.10
2018-05-25T18:57:13.104Z,66.20
2018-05-25T18:59:41.336Z,66.40
2018-05-25T19:02:09.566Z,66.70
2018-05-25T19:04:38.587Z,67.30
2018-05-25T19:07:06.916Z,66.80
2018-05-25T19:09:35.142Z,68.00
2018-05-25T19:12:03.342Z,67.50
2018-05-25T19:14:31.575Z,67.60
2018-05-25T19:16:59.828Z,67.50
2018-05-25T19:19:28.023Z,67.80
2018-05-25T19:21:57.026Z,68.20
2018-05-25T19:24:25.242Z,68.20
2018-05-25T19:26:53.502Z,69.20
2018-05-25T19:29:21.702Z,68.90
2018-05-25T19:31:49.962Z,68.80
2018-05-25T19:34:18.160Z,68.70
2018-05-25T19:36:46.455Z,68.10
2018-05-25T19:39:15.455Z,68.40
2018-05-25T19:41:44.441Z,69.50
2018-05-25T19:44:13.467Z,68.80
2018-05-25T19:46:41.693Z,68.70
2018-05-25T19:49:09.926Z,69.30
2018-05-25T19:51:38.132Z,69.30
2018-05-25T19:54:06.386Z,69.50
2018-05-25T19:56:34.668Z,69.10
2018-05-25T19:59:02.865Z,69.30
2018-05-25T20:01:31.109Z,69.40
2018-05-25T20:03:59.339Z,69.40
2018-05-25T20:06:27.564Z,68.90
2018-05-25T20:08:55.789Z,69.10
2018-05-25T20:11:24.014Z,69.40
2018-05-25T20:13:52.214Z,70.70
2018-05-25T20:16:20.459Z,70.60
2018-05-25T20:18:48.726Z,70.60
2018-05-25T20:21:17.707Z,70.70
2018-05-25T20:23:45.927Z,70.70
2018-05-25T20:26:14.158Z,70.80
2018-05-25T20:28:42.385Z,70.40
2018-05-25T20:31:11.363Z,71.20
2018-05-25T20:33:39.588Z,71.20
2018-05-25T20:36:07.793Z,71.50
2018-05-25T20:38:36.051Z,71.30
2018-05-25T20:41:04.292Z,71.90
2018-05-25T20:43:32.541Z,72.20
2018-05-25T20:46:01.484Z,72.60
2018-05-25T20:48:29.850Z,72.40
2018-05-25T20:50:58.051Z,72.70
2018-05-25T20:53:26.278Z,73.20
2018-05-25T20:55:54.519Z,73.10
2018-05-25T20:58:22.776Z,72.80
2018-05-25T21:00:51.015Z,72.80
2018-05-25T21:03:19.231Z,72.80
2018-05-25T21:05:47.465Z,73.40
2018-05-25T21:08:15.691Z,73.40
2018-05-25T21:10:43.952Z,73.50
2018-05-25T21:13:12.207Z,73.50
2018-05-25T21:15:40.436Z,73.80
2018-05-25T21:18:08.710Z,73.90
2018-05-25T21:20:36.918Z,74.40
2018-05-25T21:23:05.167Z,74.70
2018-05-25T21:25:33.388Z,75.30
2018-05-25T21:28:02.377Z,75.60
2018-05-25T21:30:31.354Z,75.70
2018-05-25T21:32:59.667Z,75.70
2018-05-25T21:35:27.851Z,76.20
2018-05-25T21:37:56.076Z,76.30
2018-05-25T21:40:24.282Z,76.50
2018-05-25T21:42:52.552Z,76.90
2018-05-25T21:45:21.539Z,77.30
2018-05-25T21:47:50.590Z,77.50
2018-05-25T21:50:18.859Z,77.50
2018-05-25T21:52:47.062Z,77.30
2018-05-25T21:55:15.273Z,77.90
2018-05-25T21:57:44.293Z,78.10
2018-05-25T22:00:12.521Z,78.10
2018-05-25T22:02:42.318Z,77.50
2018-05-25T22:05:10.690Z,77.50
2018-05-25T22:07:38.988Z,77.90
2018-05-25T22:10:07.212Z,77.80
2018-05-25T22:12:35.442Z,77.80
2018-05-25T22:15:04.434Z,79.00
2018-05-25T22:17:32.724Z,79.00
2018-05-25T22:20:00.995Z,79.30
2018-05-25T22:22:30.005Z,79.20
2018-05-25T22:24:58.254Z,79.20
2018-05-25T22:27:26.472Z,79.60
2018-05-25T22:29:54.677Z,80.00
2018-05-25T22:32:22.893Z,79.60
2018-05-25T22:34:51.901Z,79.30
2018-05-25T22:37:20.141Z,79.20
2018-05-25T22:39:48.366Z,79.40
2018-05-25T22:42:28.470Z,80.00
2018-05-25T22:45:08.489Z,80.00
2018-05-25T22:47:48.628Z,80.50
2018-05-25T22:50:28.443Z,80.90
2018-05-25T22:53:01.879Z,81.40
2018-05-25T22:55:30.085Z,81.80
2018-05-25T22:57:58.316Z,81.90
2018-05-25T23:00:26.531Z,82.20
2018-05-25T23:02:54.767Z,82.10
2018-05-25T23:05:22.986Z,82.00
2018-05-25T23:07:51.224Z,82.20
2018-05-25T23:10:19.422Z,82.30
2018-05-25T23:12:47.719Z,81.80
2018-05-25T23:15:15.947Z,82.00
2018-05-25T23:17:44.258Z,81.90
2018-05-25T23:20:12.446Z,82.30
2018-05-25T23:22:40.667Z,82.40
2018-05-25T23:25:08.889Z,82.80
2018-05-25T23:27:37.098Z,82.30
2018-05-25T23:30:05.347Z,82.50
2018-05-25T23:32:33.562Z,82.50
2018-05-25T23:35:01.806Z,82.40
2018-05-25T23:37:30.801Z,81.80
2018-05-25T23:39:59.787Z,82.20
2018-05-25T23:42:28.022Z,82.20
2018-05-25T23:44:56.237Z,82.80
2018-05-25T23:47:25.246Z,83.00
2018-05-25T23:49:55.227Z,83.50
2018-05-25T23:52:23.462Z,83.50
2018-05-25T23:54:51.698Z,83.70
2018-05-25T23:57:19.910Z,84.70
2018-05-25T23:59:48.130Z,85.20
